createdAt,value
2023-03-19T03:59:02.068Z,0.00
2023-03-19T04:00:02.011Z,0.00
2023-03-19T04:01:02.006Z,0.00
2023-03-19T04:02:02.086Z,0.00
2023-03-19T04:03:02.038Z,0.00
2023-03-19T04:04:01.983Z,0.00
2023-03-19T04:05:02.006Z,0.00
2023-03-19T04:06:01.979Z,0.00
2023-03-19T04:07:01.953Z,0.00
2023-03-19T04:08:01.944Z,0.00
2023-03-19T04:09:01.980Z,0.00
2023-03-19T04:10:01.964Z,0.00
2023-03-19T04:11:01.936Z,0.00
2023-03-19T04:12:01.930Z,0.00
2023-03-19T04:13:01.915Z,0.00
2023-03-19T04:14:01.932Z,0.00
2023-03-19T04:15:01.932Z,0.00
2023-03-19T04:16:01.906Z,0.00
2023-03-19T04:17:01.901Z,0.00
2023-03-19T04:18:01.911Z,0.00
2023-03-19T04:19:01.919Z,0.00
2023-03-19T04:20:01.889Z,0.00
2023-03-19T04:21:01.874Z,0.00
2023-03-19T04:22:01.885Z,0.00
2023-03-19T04:23:01.880Z,0.00
2023-03-19T04:24:01.889Z,0.00
2023-03-19T04:25:01.866Z,0.00
2023-03-19T04:26:01.864Z,0.00
2023-03-19T04:27:01.867Z,0.00
2023-03-19T04:28:01.865Z,0.00
2023-03-19T04:29:01.871Z,0.00
2023-03-19T04:30:01.856Z,0.00
2023-03-19T04:31:01.921Z,0.00
2023-03-19T04:32:01.840Z,0.00
2023-03-19T04:34:01.855Z,0.00
2023-03-19T04:35:01.881Z,0.00
2023-03-19T04:36:01.889Z,0.00
2023-03-19T04:37:01.829Z,0.00
2023-03-19T04:38:01.834Z,0.00
2023-03-19T04:39:01.845Z,0.00
2023-03-19T04:40:01.821Z,0.00
2023-03-19T04:41:01.830Z,0.00
2023-03-19T04:42:01.807Z,0.00
2023-03-19T04:43:01.813Z,0.00
2023-03-19T04:44:01.795Z,0.00
2023-03-19T04:45:01.820Z,0.00
2023-03-19T04:46:01.820Z,0.00
2023-03-19T04:47:01.792Z,0.00
2023-03-19T04:48:01.783Z,0.00
2023-03-19T04:49:01.798Z,0.00
2023-03-19T04:50:01.807Z,0.00
2023-03-19T04:51:01.761Z,0.00
2023-03-19T04:52:01.764Z,0.00
2023-03-19T04:53:01.767Z,0.00
2023-03-19T04:54:01.766Z,0.00
2023-03-19T04:55:01.753Z,0.00
2023-03-19T04:56:01.776Z,0.00
2023-03-19T04:57:01.740Z,0.00
2023-03-19T04:58:01.763Z,0.00
2023-03-19T04:59:01.757Z,0.00
2023-03-19T05:00:01.735Z,0.00
2023-03-19T05:01:01.848Z,0.00
2023-03-19T05:02:01.737Z,0.00
2023-03-19T05:03:01.728Z,0.00
2023-03-19T05:04:01.841Z,0.00
2023-03-19T05:05:01.725Z,0.00
2023-03-19T05:06:01.709Z,0.00
2023-03-19T05:07:01.700Z,0.00
2023-03-19T05:08:01.728Z,0.00
2023-03-19T05:09:01.700Z,0.00
2023-03-19T05:10:01.714Z,0.00
2023-03-19T05:11:01.704Z,4.00
2023-03-19T05:12:01.709Z,4.00
2023-03-19T05:13:01.695Z,0.00
2023-03-19T05:14:01.677Z,4.00
2023-03-19T05:15:01.680Z,4.00
2023-03-19T05:16:01.727Z,4.00
2023-03-19T05:17:01.688Z,8.00
2023-03-19T05:18:01.683Z,8.00
2023-03-19T05:19:01.679Z,8.00
2023-03-19T05:20:01.681Z,8.00
2023-03-19T05:21:01.643Z,8.00
2023-03-19T05:22:01.657Z,8.00
2023-03-19T05:23:01.670Z,12.00
2023-03-19T05:24:01.645Z,12.00
2023-03-19T05:25:01.636Z,12.00
2023-03-19T05:26:01.658Z,16.00
2023-03-19T05:27:01.628Z,16.00
2023-03-19T05:28:01.654Z,16.00
2023-03-19T05:29:01.628Z,20.00
2023-03-19T05:30:01.719Z,24.00
2023-03-19T05:31:01.815Z,28.00
2023-03-19T05:32:01.620Z,32.00
2023-03-19T05:33:01.697Z,36.00
2023-03-19T05:34:01.605Z,36.00
2023-03-19T05:35:01.622Z,40.00
2023-03-19T05:36:01.704Z,44.00
2023-03-19T05:37:01.592Z,52.00
2023-03-19T05:38:01.596Z,52.00
2023-03-19T05:39:01.601Z,56.00
2023-03-19T05:40:01.601Z,64.00
2023-03-19T05:41:01.572Z,72.00
2023-03-19T05:42:01.573Z,80.00
2023-03-19T05:43:01.565Z,88.00
2023-03-19T05:44:01.588Z,92.00
2023-03-19T05:45:01.571Z,100.00
2023-03-19T05:46:01.559Z,108.00
2023-03-19T05:47:01.576Z,120.00
2023-03-19T05:48:01.553Z,128.00
2023-03-19T05:49:01.555Z,136.00
2023-03-19T05:50:01.541Z,144.00
2023-03-19T05:51:01.580Z,148.00
2023-03-19T05:52:01.556Z,152.00
2023-03-19T05:53:01.538Z,156.00
2023-03-19T05:54:01.526Z,160.00
2023-03-19T05:55:01.528Z,164.00
2023-03-19T05:56:01.553Z,168.00
2023-03-19T05:57:02.758Z,172.00
2023-03-19T05:58:01.519Z,172.00
2023-03-19T05:59:01.502Z,176.00
2023-03-19T06:00:01.550Z,180.00
2023-03-19T06:01:01.534Z,188.00
2023-03-19T06:02:01.513Z,196.00
2023-03-19T06:03:01.565Z,204.00
2023-03-19T06:04:02.219Z,220.00
2023-03-19T06:05:01.494Z,240.00
2023-03-19T06:06:01.593Z,256.00
2023-03-19T06:07:01.496Z,268.00
2023-03-19T06:08:01.491Z,280.00
2023-03-19T06:09:01.486Z,292.00
2023-03-19T06:10:01.466Z,312.00
2023-03-19T06:11:01.479Z,332.00
2023-03-19T06:12:01.464Z,352.00
2023-03-19T06:13:01.452Z,372.00
2023-03-19T06:14:01.473Z,392.00
2023-03-19T06:15:01.453Z,408.00
2023-03-19T06:16:01.521Z,432.00
2023-03-19T06:17:01.444Z,456.00
2023-03-19T06:18:01.451Z,472.00
2023-03-19T06:19:01.435Z,464.00
2023-03-19T06:20:01.424Z,472.00
2023-03-19T06:21:01.424Z,488.00
2023-03-19T06:22:01.424Z,512.00
2023-03-19T06:23:01.454Z,548.00
2023-03-19T06:24:01.412Z,580.00
2023-03-19T06:25:01.417Z,596.00
2023-03-19T06:26:01.405Z,620.00
2023-03-19T06:27:01.449Z,748.00
2023-03-19T06:28:01.411Z,628.00
2023-03-19T06:29:01.428Z,636.00
2023-03-19T06:30:01.388Z,644.00
2023-03-19T06:31:01.535Z,668.00
2023-03-19T06:32:01.390Z,700.00
2023-03-19T06:33:01.426Z,728.00
2023-03-19T06:34:01.376Z,764.00
2023-03-19T06:35:01.373Z,772.00
2023-03-19T06:36:01.448Z,800.00
2023-03-19T06:37:01.366Z,836.00
2023-03-19T06:38:01.408Z,832.00
2023-03-19T06:39:01.398Z,800.00
2023-03-19T06:40:01.364Z,1028.00
2023-03-19T06:41:01.347Z,1432.00
2023-03-19T06:42:01.380Z,764.00
2023-03-19T06:43:01.371Z,720.00
2023-03-19T06:44:01.343Z,724.00
2023-03-19T06:45:01.383Z,740.00
2023-03-19T06:46:01.414Z,760.00
2023-03-19T06:47:01.341Z,784.00
2023-03-19T06:48:01.331Z,800.00
2023-03-19T06:49:01.331Z,816.00
2023-03-19T06:50:01.364Z,844.00
2023-03-19T06:51:01.315Z,880.00
2023-03-19T06:52:01.318Z,904.00
2023-03-19T06:53:01.327Z,880.00
2023-03-19T06:54:01.306Z,888.00
2023-03-19T06:55:01.344Z,896.00
2023-03-19T06:56:01.394Z,908.00
2023-03-19T06:57:01.363Z,928.00
2023-03-19T06:58:01.346Z,948.00
2023-03-19T06:59:01.320Z,972.00
2023-03-19T07:00:01.320Z,980.00
2023-03-19T07:01:01.380Z,992.00
2023-03-19T07:02:01.298Z,1000.00
2023-03-19T07:03:01.290Z,1008.00
2023-03-19T07:04:01.326Z,1028.00
2023-03-19T07:05:01.283Z,1036.00
2023-03-19T07:06:01.299Z,1048.00
2023-03-19T07:07:01.281Z,1068.00
2023-03-19T07:08:01.280Z,1068.00
2023-03-19T07:09:01.271Z,1084.00
2023-03-19T07:10:01.257Z,1100.00
2023-03-19T07:11:01.319Z,1108.00
2023-03-19T07:12:01.281Z,1116.00
2023-03-19T07:13:01.253Z,1112.00
2023-03-19T07:14:01.254Z,1104.00
2023-03-19T07:15:01.293Z,1104.00
2023-03-19T07:16:01.257Z,1128.00
2023-03-19T07:17:01.237Z,1096.00
2023-03-19T07:18:01.237Z,1052.00
2023-03-19T07:19:01.235Z,1036.00
2023-03-19T07:20:01.245Z,1036.00
2023-03-19T07:21:01.233Z,1036.00
2023-03-19T07:22:01.229Z,1040.00
2023-03-19T07:23:01.214Z,1040.00
2023-03-19T07:24:01.215Z,1028.00
2023-03-19T07:25:01.227Z,1016.00
2023-03-19T07:26:01.240Z,1016.00
2023-03-19T07:27:01.234Z,1032.00
2023-03-19T07:28:01.219Z,1056.00
2023-03-19T07:29:01.200Z,1084.00
2023-03-19T07:30:01.196Z,1108.00
2023-03-19T07:31:01.182Z,1148.00
2023-03-19T07:32:01.285Z,1168.00
2023-03-19T07:33:01.288Z,1352.00
2023-03-19T07:34:01.207Z,1268.00
2023-03-19T07:35:01.192Z,1316.00
2023-03-19T07:36:01.245Z,1440.00
2023-03-19T07:37:01.168Z,1304.00
2023-03-19T07:38:01.167Z,1188.00
2023-03-19T07:39:01.160Z,1096.00
2023-03-19T07:40:01.158Z,1036.00
2023-03-19T07:41:02.911Z,1100.00
2023-03-19T07:42:01.155Z,1172.00
2023-03-19T07:43:01.172Z,1236.00
2023-03-19T07:44:01.163Z,1300.00
2023-03-19T07:45:01.154Z,1220.00
2023-03-19T07:46:01.297Z,1160.00
2023-03-19T07:47:01.162Z,1092.00
2023-03-19T07:48:01.130Z,1028.00
2023-03-19T07:49:01.123Z,1012.00
2023-03-19T07:50:01.150Z,1036.00
2023-03-19T07:51:01.137Z,1088.00
2023-03-19T07:52:01.126Z,1152.00
2023-03-19T07:53:01.143Z,1240.00
2023-03-19T07:54:01.110Z,1360.00
2023-03-19T07:55:01.132Z,1376.00
2023-03-19T07:56:01.099Z,1512.00
2023-03-19T07:57:01.119Z,1552.00
2023-03-19T07:58:01.118Z,1524.00
2023-03-19T07:59:01.143Z,1540.00
2023-03-19T08:00:01.120Z,1556.00
2023-03-19T08:01:01.110Z,1564.00
2023-03-19T08:02:01.108Z,1544.00
2023-03-19T08:03:01.103Z,1536.00
2023-03-19T08:04:01.071Z,1552.00
2023-03-19T08:05:01.073Z,1468.00
2023-03-19T08:06:01.093Z,1404.00
2023-03-19T08:07:01.102Z,1440.00
2023-03-19T08:08:01.100Z,1428.00
2023-03-19T08:09:01.069Z,1424.00
2023-03-19T08:10:01.062Z,1436.00
2023-03-19T08:11:01.112Z,1500.00
2023-03-19T08:12:01.073Z,1584.00
2023-03-19T08:13:01.076Z,1624.00
2023-03-19T08:14:01.070Z,1604.00
2023-03-19T08:15:01.277Z,1592.00
2023-03-19T08:16:01.161Z,1564.00
2023-03-19T08:17:01.087Z,1560.00
2023-03-19T08:18:01.052Z,1580.00
2023-03-19T08:19:01.044Z,1616.00
2023-03-19T08:20:01.085Z,1652.00
2023-03-19T08:21:01.044Z,1696.00
2023-03-19T08:22:01.041Z,1716.00
2023-03-19T08:23:01.061Z,1720.00
2023-03-19T08:24:03.718Z,1732.00
2023-03-19T08:25:01.045Z,1764.00
2023-03-19T08:26:01.045Z,1820.00
2023-03-19T08:27:01.010Z,1868.00
2023-03-19T08:28:01.273Z,1868.00
2023-03-19T08:29:01.014Z,1844.00
2023-03-19T08:30:01.036Z,1892.00
2023-03-19T08:31:01.086Z,2132.00
2023-03-19T08:32:01.042Z,3288.00
2023-03-19T08:33:01.097Z,3856.00
2023-03-19T08:34:01.015Z,3732.00
2023-03-19T08:35:01.044Z,3744.00
2023-03-19T08:36:01.114Z,3840.00
2023-03-19T08:37:01.022Z,3768.00
2023-03-19T08:38:00.990Z,3724.00
2023-03-19T08:39:00.989Z,3788.00
2023-03-19T08:40:00.991Z,3768.00
2023-03-19T08:41:01.001Z,3648.00
2023-03-19T08:42:00.978Z,3580.00
2023-03-19T08:43:00.985Z,2732.00
2023-03-19T08:44:01.009Z,2744.00
2023-03-19T08:45:00.967Z,2268.00
2023-03-19T08:46:01.044Z,2360.00
2023-03-19T08:47:01.047Z,3700.00
2023-03-19T08:48:00.978Z,2944.00
2023-03-19T08:49:00.962Z,2100.00
2023-03-19T08:50:00.958Z,1972.00
2023-03-19T08:51:00.978Z,2700.00
2023-03-19T08:52:00.985Z,2188.00
2023-03-19T08:53:00.979Z,2100.00
2023-03-19T08:54:00.991Z,2268.00
2023-03-19T08:55:00.978Z,2412.00
2023-03-19T08:56:00.987Z,2368.00
2023-03-19T08:57:00.974Z,2308.00
2023-03-19T08:58:00.948Z,2276.00
2023-03-19T08:59:00.954Z,2220.00
2023-03-19T09:00:01.001Z,2136.00
2023-03-19T09:01:00.938Z,2064.00
2023-03-19T09:02:00.982Z,1996.00
2023-03-19T09:03:00.955Z,1940.00
2023-03-19T09:04:00.951Z,1892.00
2023-03-19T09:05:00.980Z,1892.00
2023-03-19T09:06:00.940Z,1900.00
2023-03-19T09:07:00.944Z,1912.00
2023-03-19T09:08:00.925Z,1908.00
2023-03-19T09:09:00.921Z,1920.00
2023-03-19T09:10:00.930Z,2004.00
2023-03-19T09:11:01.023Z,2172.00
2023-03-19T09:12:00.930Z,2400.00
2023-03-19T09:13:00.917Z,2636.00
2023-03-19T09:14:00.929Z,2900.00
2023-03-19T09:15:00.921Z,2964.00
2023-03-19T09:16:00.955Z,2984.00
2023-03-19T09:17:00.930Z,2976.00
2023-03-19T09:18:00.907Z,2872.00
2023-03-19T09:19:00.989Z,2796.00
2023-03-19T09:20:00.928Z,2772.00
2023-03-19T09:21:00.905Z,2824.00
2023-03-19T09:22:00.912Z,3036.00
2023-03-19T09:23:00.944Z,3192.00
2023-03-19T09:24:00.930Z,3072.00
2023-03-19T09:25:00.927Z,3856.00
2023-03-19T09:26:00.890Z,4088.00
2023-03-19T09:27:00.909Z,3296.00
2023-03-19T09:28:00.902Z,3532.00
2023-03-19T09:29:00.905Z,3976.00
2023-03-19T09:30:00.927Z,4924.00
2023-03-19T09:31:00.915Z,4340.00
2023-03-19T09:32:00.907Z,4396.00
2023-03-19T09:33:00.943Z,4096.00
2023-03-19T09:34:00.888Z,3776.00
2023-03-19T09:35:00.912Z,3652.00
2023-03-19T09:36:00.918Z,3488.00
2023-03-19T09:37:00.923Z,3320.00
2023-03-19T09:38:00.904Z,3340.00
2023-03-19T09:39:00.872Z,3432.00
2023-03-19T09:40:00.891Z,3376.00
2023-03-19T09:41:00.880Z,3180.00
2023-03-19T09:42:00.900Z,2920.00
2023-03-19T09:43:00.894Z,2812.00
2023-03-19T09:44:00.920Z,2824.00
2023-03-19T09:45:00.882Z,2952.00
2023-03-19T09:46:00.889Z,3228.00
2023-03-19T09:47:00.933Z,3452.00
2023-03-19T09:48:00.874Z,3576.00
2023-03-19T09:49:00.887Z,3736.00
2023-03-19T09:50:00.894Z,3920.00
2023-03-19T09:51:00.887Z,3972.00
2023-03-19T09:52:00.864Z,4076.00
2023-03-19T09:53:00.867Z,4332.00
2023-03-19T09:54:00.862Z,4616.00
2023-03-19T09:55:00.873Z,3508.00
2023-03-19T09:56:00.884Z,3472.00
2023-03-19T09:57:00.859Z,3740.00
2023-03-19T09:58:00.873Z,3980.00
2023-03-19T09:59:00.870Z,4184.00
2023-03-19T10:00:00.877Z,4916.00
2023-03-19T10:01:00.858Z,4712.00
2023-03-19T10:02:00.930Z,4808.00
2023-03-19T10:13:18.362Z,4644.00
2023-03-19T10:14:18.326Z,4720.00
2023-03-19T10:15:18.326Z,5384.00
2023-03-19T10:16:18.338Z,6188.00
2023-03-19T10:17:18.326Z,5808.00
2023-03-19T10:18:18.303Z,5832.00
2023-03-19T10:19:18.305Z,5908.00
2023-03-19T10:20:18.307Z,5064.00
2023-03-19T10:21:18.396Z,4868.00
2023-03-19T10:22:18.299Z,5008.00
2023-03-19T10:23:18.299Z,2956.00
2023-03-19T10:24:18.291Z,1896.00
2023-03-19T10:25:18.333Z,1280.00
2023-03-19T10:26:18.286Z,1016.00
2023-03-19T10:27:18.327Z,940.00
2023-03-19T10:28:18.310Z,940.00
2023-03-19T10:29:18.316Z,944.00
2023-03-19T10:30:18.303Z,1020.00
2023-03-19T10:31:18.280Z,1288.00
2023-03-19T10:32:18.346Z,1964.00
2023-03-19T10:33:18.313Z,2664.00
2023-03-19T10:34:18.274Z,2812.00
2023-03-19T10:35:18.286Z,2996.00
2023-03-19T10:36:18.315Z,3504.00
2023-03-19T10:37:18.301Z,4044.00
2023-03-19T10:38:18.282Z,4552.00
2023-03-19T10:39:18.273Z,5032.00
2023-03-19T10:40:18.275Z,4612.00
2023-03-19T10:41:18.274Z,3744.00
2023-03-19T10:42:18.294Z,3192.00
2023-03-19T10:43:18.289Z,3020.00
2023-03-19T10:44:18.273Z,3300.00
2023-03-19T10:45:18.318Z,3544.00
2023-03-19T10:46:18.302Z,3440.00
2023-03-19T10:47:18.269Z,2956.00
2023-03-19T10:48:18.283Z,2484.00
2023-03-19T10:49:18.332Z,2388.00
2023-03-19T10:50:18.389Z,2440.00
2023-03-19T10:51:18.279Z,2440.00
2023-03-19T10:52:18.271Z,2336.00
2023-03-19T10:53:18.272Z,2280.00
2023-03-19T10:54:18.264Z,2200.00
2023-03-19T10:55:18.286Z,2232.00
2023-03-19T10:56:18.297Z,2340.00
2023-03-19T10:57:18.260Z,2404.00
2023-03-19T10:58:18.286Z,2240.00
2023-03-19T10:59:18.256Z,2060.00
2023-03-19T11:00:18.394Z,2064.00
2023-03-19T11:01:18.376Z,2032.00
2023-03-19T11:02:18.269Z,1988.00
2023-03-19T11:03:18.317Z,2128.00
2023-03-19T11:04:18.368Z,2340.00
2023-03-19T11:05:18.251Z,2936.00
2023-03-19T11:06:18.319Z,1968.00
2023-03-19T11:07:18.262Z,1928.00
2023-03-19T11:08:34.524Z,1936.00
2023-03-19T11:09:18.250Z,1784.00
2023-03-19T11:10:18.307Z,1508.00
2023-03-19T11:11:18.244Z,1304.00
2023-03-19T11:12:18.253Z,1228.00
2023-03-19T11:13:18.255Z,1224.00
2023-03-19T11:14:18.250Z,1236.00
2023-03-19T11:15:18.236Z,1172.00
2023-03-19T11:16:18.275Z,1096.00
2023-03-19T11:17:18.262Z,1024.00
2023-03-19T11:18:18.243Z,932.00
2023-03-19T11:19:18.233Z,856.00
2023-03-19T11:20:18.242Z,820.00
2023-03-19T11:21:18.224Z,848.00
2023-03-19T11:22:20.820Z,988.00
2023-03-19T11:23:18.223Z,1200.00
2023-03-19T11:24:18.220Z,1412.00
2023-03-19T11:25:18.225Z,1540.00
2023-03-19T11:26:18.216Z,1620.00
2023-03-19T11:27:18.223Z,1656.00
2023-03-19T11:28:21.086Z,1660.00
2023-03-19T11:29:18.629Z,1608.00
2023-03-19T11:30:18.229Z,1592.00
2023-03-19T11:31:18.210Z,1552.00
2023-03-19T11:32:22.097Z,1548.00
2023-03-19T11:33:18.309Z,1596.00
2023-03-19T11:34:18.221Z,1672.00
2023-03-19T11:35:18.215Z,1768.00
2023-03-19T11:36:18.340Z,1792.00
2023-03-19T11:37:18.202Z,1760.00
2023-03-19T11:38:18.192Z,1688.00
2023-03-19T11:39:18.200Z,1636.00
2023-03-19T11:40:18.197Z,1664.00
2023-03-19T11:41:18.213Z,1792.00
2023-03-19T11:42:18.203Z,2012.00
2023-03-19T11:43:18.192Z,2188.00
2023-03-19T11:44:18.237Z,2272.00
2023-03-19T11:45:18.182Z,2248.00
2023-03-19T11:46:18.216Z,2252.00
2023-03-19T11:47:27.114Z,2388.00
2023-03-19T11:48:18.216Z,2692.00
2023-03-19T11:49:18.210Z,3004.00
2023-03-19T11:50:18.279Z,3508.00
2023-03-19T11:51:18.177Z,4144.00
2023-03-19T11:52:18.173Z,4564.00
2023-03-19T11:53:18.186Z,4660.00
2023-03-19T11:54:18.185Z,4248.00
2023-03-19T11:55:18.189Z,3788.00
2023-03-19T11:56:18.172Z,2948.00
2023-03-19T11:57:18.176Z,2500.00
2023-03-19T11:58:18.219Z,2136.00
2023-03-19T11:59:18.169Z,1848.00
2023-03-19T12:00:18.180Z,1648.00
2023-03-19T12:01:18.154Z,1484.00
2023-03-19T12:02:18.258Z,1320.00
2023-03-19T12:03:18.196Z,1192.00
2023-03-19T12:04:18.153Z,1096.00
2023-03-19T12:05:18.168Z,1004.00
2023-03-19T12:06:18.161Z,932.00
2023-03-19T12:07:18.177Z,856.00
2023-03-19T12:08:18.148Z,792.00
2023-03-19T12:09:18.150Z,728.00
2023-03-19T12:10:18.184Z,684.00
2023-03-19T12:11:18.144Z,644.00
2023-03-19T12:12:18.155Z,624.00
2023-03-19T12:13:18.144Z,644.00
2023-03-19T12:14:18.133Z,692.00
2023-03-19T12:15:18.144Z,796.00
2023-03-19T12:16:18.216Z,984.00
2023-03-19T12:17:18.151Z,1284.00
2023-03-19T12:18:18.146Z,1660.00
2023-03-19T12:19:18.155Z,2108.00
2023-03-19T12:20:18.126Z,2720.00
2023-03-19T12:21:18.156Z,3508.00
2023-03-19T12:22:18.135Z,4436.00
2023-03-19T12:23:18.156Z,5388.00
2023-03-19T12:24:18.140Z,6152.00
2023-03-19T12:25:18.140Z,6780.00
2023-03-19T12:26:18.118Z,7276.00
2023-03-19T12:27:18.115Z,7688.00
2023-03-19T12:28:18.111Z,7904.00
2023-03-19T12:29:18.153Z,7800.00
2023-03-19T12:30:18.114Z,7912.00
2023-03-19T12:31:18.230Z,7688.00
2023-03-19T12:32:18.104Z,7696.00
2023-03-19T12:33:18.109Z,6824.00
2023-03-19T12:34:18.128Z,6984.00
2023-03-19T12:35:18.096Z,7080.00
2023-03-19T12:36:18.181Z,6220.00
2023-03-19T12:37:18.132Z,5392.00
2023-03-19T12:38:18.098Z,5448.00
2023-03-19T12:39:18.090Z,5656.00
2023-03-19T12:40:18.104Z,6256.00
2023-03-19T12:41:18.119Z,6876.00
2023-03-19T12:42:18.087Z,7024.00
2023-03-19T12:43:18.093Z,12040.00
2023-03-19T12:44:18.096Z,13152.00
2023-03-19T12:45:18.086Z,13968.00
2023-03-19T12:46:18.161Z,14300.00
2023-03-19T12:47:18.089Z,14672.00
2023-03-19T12:48:18.127Z,14340.00
2023-03-19T12:49:18.083Z,14320.00
2023-03-19T12:50:18.070Z,14616.00
2023-03-19T12:51:18.075Z,14432.00
2023-03-19T12:52:18.079Z,14648.00
2023-03-19T12:53:18.113Z,15512.00
2023-03-19T12:54:18.096Z,15524.00
2023-03-19T12:55:18.090Z,16172.00
2023-03-19T12:56:18.088Z,11068.00
2023-03-19T12:57:18.105Z,15320.00
2023-03-19T12:58:18.107Z,6620.00
2023-03-19T12:59:18.097Z,6096.00
2023-03-19T13:00:18.101Z,7168.00
2023-03-19T13:01:18.179Z,11216.00
2023-03-19T13:02:18.238Z,17680.00
2023-03-19T13:03:18.139Z,17716.00
2023-03-19T13:04:18.209Z,16660.00
2023-03-19T13:05:18.107Z,16872.00
2023-03-19T13:06:18.140Z,16436.00
2023-03-19T13:07:18.097Z,14036.00
2023-03-19T13:08:18.108Z,18200.00
2023-03-19T13:09:18.142Z,16312.00
2023-03-19T13:10:18.119Z,12516.00
2023-03-19T13:11:18.109Z,3728.00
2023-03-19T13:12:18.114Z,2540.00
2023-03-19T13:13:18.116Z,2116.00
2023-03-19T13:14:18.144Z,1804.00
2023-03-19T13:15:18.127Z,1600.00
2023-03-19T13:16:18.187Z,1480.00
2023-03-19T13:17:20.264Z,1404.00
2023-03-19T13:18:18.133Z,1408.00
2023-03-19T13:19:18.161Z,1448.00
2023-03-19T13:20:18.150Z,1508.00
2023-03-19T13:21:18.155Z,1612.00
2023-03-19T13:22:18.145Z,1720.00
2023-03-19T13:23:20.146Z,1724.00
2023-03-19T13:24:18.174Z,1604.00
2023-03-19T13:25:18.176Z,1520.00
2023-03-19T13:26:18.175Z,1496.00
2023-03-19T13:27:18.152Z,1544.00
2023-03-19T13:28:18.174Z,1684.00
2023-03-19T13:29:18.191Z,1908.00
2023-03-19T13:30:18.185Z,2160.00
2023-03-19T13:31:18.191Z,2292.00
2023-03-19T13:32:18.161Z,2436.00
2023-03-19T13:33:18.201Z,2716.00
2023-03-19T13:34:18.210Z,2900.00
2023-03-19T13:35:18.174Z,3172.00
2023-03-19T13:36:18.187Z,3328.00
2023-03-19T13:37:18.162Z,3376.00
2023-03-19T13:38:18.167Z,3344.00
2023-03-19T13:39:18.162Z,3424.00
2023-03-19T13:40:18.171Z,3892.00
2023-03-19T13:41:18.224Z,5672.00
2023-03-19T13:42:18.188Z,10352.00
2023-03-19T13:43:27.632Z,6636.00
2023-03-19T13:44:18.178Z,4452.00
2023-03-19T13:45:18.175Z,3480.00
2023-03-19T13:46:18.254Z,2916.00
2023-03-19T13:47:18.185Z,2564.00
2023-03-19T13:48:24.360Z,2376.00
2023-03-19T13:49:18.171Z,2160.00
2023-03-19T13:50:18.221Z,1828.00
2023-03-19T13:51:18.192Z,1560.00
2023-03-19T13:52:18.197Z,1408.00
2023-03-19T13:53:18.173Z,1316.00
2023-03-19T13:54:18.183Z,1268.00
2023-03-19T13:55:18.183Z,1220.00
2023-03-19T13:56:29.507Z,1172.00
2023-03-19T13:57:18.661Z,1136.00
2023-03-19T13:58:18.170Z,1100.00
2023-03-19T13:59:18.193Z,1048.00
2023-03-19T14:00:18.174Z,1000.00
2023-03-19T14:01:18.236Z,952.00
2023-03-19T14:02:18.169Z,912.00
2023-03-19T14:03:18.314Z,896.00
2023-03-19T14:05:51.235Z,1004.00
2023-03-19T14:06:51.196Z,1064.00
2023-03-19T14:07:51.219Z,1140.00
2023-03-19T14:08:51.210Z,1212.00
2023-03-19T14:09:51.248Z,1228.00
2023-03-19T14:10:51.217Z,1228.00
2023-03-19T14:11:51.205Z,1224.00
2023-03-19T14:12:51.205Z,1204.00
2023-03-19T14:13:51.202Z,1208.00
2023-03-19T14:14:51.210Z,1212.00
2023-03-19T14:15:51.200Z,1212.00
2023-03-19T14:16:51.200Z,1208.00
2023-03-19T14:17:51.184Z,1220.00
2023-03-19T14:18:51.200Z,1236.00
2023-03-19T14:19:51.308Z,1244.00
2023-03-19T14:20:52.308Z,1252.00
2023-03-19T14:21:51.200Z,1248.00
2023-03-19T14:22:51.197Z,1240.00
2023-03-19T14:23:52.613Z,1244.00
2023-03-19T14:24:56.767Z,1244.00
2023-03-19T14:25:51.235Z,1236.00
2023-03-19T14:26:51.181Z,1228.00
2023-03-19T14:27:51.177Z,1224.00
2023-03-19T14:28:51.182Z,1240.00
2023-03-19T14:29:51.206Z,1264.00
2023-03-19T14:30:51.176Z,1300.00
2023-03-19T14:31:51.996Z,1352.00
2023-03-19T14:32:51.187Z,1404.00
2023-03-19T14:33:51.188Z,1464.00
2023-03-19T14:34:51.181Z,1512.00
2023-03-19T14:35:51.231Z,1568.00
2023-03-19T14:36:51.153Z,1656.00
2023-03-19T14:37:51.170Z,1772.00
2023-03-19T14:38:51.175Z,1864.00
2023-03-19T14:39:51.161Z,1932.00
2023-03-19T14:40:51.168Z,1988.00
2023-03-19T14:41:51.157Z,2044.00
2023-03-19T14:42:51.150Z,2096.00
2023-03-19T14:43:51.156Z,2100.00
2023-03-19T14:44:51.184Z,2004.00
2023-03-19T14:45:51.209Z,2092.00
2023-03-19T14:46:51.151Z,2752.00
2023-03-19T14:47:51.152Z,2788.00
2023-03-19T14:48:51.164Z,3020.00
2023-03-19T14:50:51.135Z,3260.00
2023-03-19T14:51:51.146Z,3104.00
2023-03-19T14:52:51.162Z,2824.00
2023-03-19T14:53:51.134Z,2536.00
2023-03-19T14:54:51.128Z,2276.00
2023-03-19T14:55:51.131Z,2044.00
2023-03-19T14:56:51.122Z,1856.00
2023-03-19T14:57:51.125Z,1740.00
2023-03-19T14:58:51.152Z,1656.00
2023-03-19T14:59:51.136Z,1628.00
2023-03-19T15:00:51.209Z,1696.00
2023-03-19T15:01:51.111Z,2140.00
2023-03-19T15:02:51.115Z,5416.00
2023-03-19T15:03:51.131Z,3508.00
2023-03-19T15:04:51.199Z,3640.00
2023-03-19T15:05:51.107Z,3780.00
2023-03-19T15:06:51.112Z,3772.00
2023-03-19T15:07:51.110Z,3644.00
2023-03-19T15:08:51.104Z,3320.00
2023-03-19T15:09:51.126Z,2988.00
2023-03-19T15:10:51.108Z,2600.00
2023-03-19T15:11:51.108Z,2384.00
2023-03-19T15:12:51.100Z,2240.00
2023-03-19T15:13:51.104Z,2120.00
2023-03-19T15:14:51.117Z,2032.00
2023-03-19T15:15:51.092Z,1844.00
2023-03-19T15:16:51.148Z,1704.00
2023-03-19T15:18:03.028Z,1592.00
2023-03-19T15:18:51.082Z,1600.00
2023-03-19T15:19:51.085Z,1684.00
2023-03-19T15:20:51.075Z,1868.00
2023-03-19T15:21:51.075Z,2172.00
2023-03-19T15:22:51.092Z,3212.00
2023-03-19T15:23:51.103Z,3092.00
2023-03-19T15:24:51.070Z,3236.00
2023-03-19T15:25:51.091Z,3348.00
2023-03-19T15:26:51.073Z,3472.00
2023-03-19T15:27:51.071Z,3852.00
2023-03-19T15:28:53.774Z,4804.00
2023-03-19T15:29:51.772Z,5012.00
2023-03-19T15:31:00.460Z,5124.00
2023-03-19T15:32:02.483Z,5488.00
2023-03-19T15:33:04.354Z,6116.00
2023-03-19T15:33:51.225Z,6480.00
2023-03-19T15:34:51.171Z,6968.00
2023-03-19T15:35:51.130Z,6872.00
2023-03-19T15:36:51.072Z,6532.00
2023-03-19T15:37:51.048Z,5780.00
2023-03-19T15:38:51.058Z,5088.00
2023-03-19T15:39:51.050Z,4688.00
2023-03-19T15:40:51.052Z,4312.00
2023-03-19T15:41:51.062Z,4060.00
2023-03-19T15:42:51.049Z,3972.00
2023-03-19T15:43:51.047Z,3916.00
2023-03-19T15:44:51.035Z,3848.00
2023-03-19T15:45:51.049Z,3692.00
2023-03-19T15:46:51.046Z,3492.00
2023-03-19T15:47:51.048Z,3328.00
2023-03-19T15:48:51.074Z,3284.00
2023-03-19T15:49:52.079Z,3408.00
2023-03-19T15:50:51.027Z,3664.00
2023-03-19T15:51:51.030Z,3908.00
2023-03-19T15:52:51.061Z,4040.00
2023-03-19T15:53:51.999Z,4016.00
2023-03-19T15:54:51.605Z,4008.00
2023-03-19T15:55:51.017Z,4020.00
2023-03-19T15:56:51.013Z,3932.00
2023-03-19T15:57:51.038Z,3932.00
2023-03-19T15:58:53.156Z,3832.00
2023-03-19T15:59:51.029Z,3832.00
2023-03-19T16:00:51.024Z,3848.00
2023-03-19T16:12:27.108Z,3328.00
2023-03-19T16:13:27.235Z,3352.00
2023-03-19T16:14:27.065Z,3396.00
2023-03-19T16:15:27.082Z,3384.00
2023-03-19T16:16:27.159Z,3208.00
2023-03-19T16:17:27.059Z,2916.00
2023-03-19T16:18:27.081Z,2708.00
2023-03-19T16:19:27.080Z,2516.00
2023-03-19T16:20:27.054Z,2372.00
2023-03-19T16:21:27.043Z,2272.00
2023-03-19T16:22:27.037Z,2152.00
2023-03-19T16:23:27.072Z,2044.00
2023-03-19T16:24:27.040Z,1968.00
2023-03-19T16:25:27.057Z,1928.00
2023-03-19T16:26:27.056Z,1956.00
2023-03-19T16:27:27.035Z,2044.00
2023-03-19T16:28:27.038Z,2140.00
2023-03-19T16:29:27.010Z,2196.00
2023-03-19T16:30:27.009Z,2232.00
2023-03-19T16:31:27.051Z,2224.00
2023-03-19T16:32:26.999Z,2120.00
2023-03-19T16:33:26.993Z,2008.00
2023-03-19T16:34:27.018Z,1956.00
2023-03-19T16:35:27.010Z,1928.00
2023-03-19T16:36:26.989Z,1908.00
2023-03-19T16:37:27.003Z,1880.00
2023-03-19T16:38:27.004Z,1872.00
2023-03-19T16:39:27.000Z,1864.00